createdAt,value
2024-02-08T00:01:44.032Z,3.08
2024-02-08T00:04:10.961Z,3.17
2024-02-08T00:06:38.068Z,3.35
2024-02-08T00:09:05.049Z,3.28
2024-02-08T00:11:34.820Z,3.00
2024-02-08T00:14:02.218Z,3.15
2024-02-08T00:16:29.157Z,3.30
2024-02-08T00:18:57.079Z,3.88
2024-02-08T00:21:24.879Z,3.00
2024-02-08T00:23:55.455Z,2.88
2024-02-08T00:26:22.342Z,3.17
2024-02-08T00:28:49.267Z,3.45
2024-02-08T00:31:16.158Z,3.22
2024-02-08T00:33:43.010Z,3.50
2024-02-08T00:36:11.340Z,3.22
2024-02-08T00:38:38.868Z,3.00
2024-02-08T00:41:05.790Z,3.65
2024-02-08T00:43:34.750Z,2.88
2024-02-08T00:46:04.028Z,3.30
2024-02-08T00:48:30.975Z,3.15
2024-02-08T00:50:58.020Z,3.17
2024-02-08T00:53:24.898Z,3.55
2024-02-08T00:55:51.833Z,3.13
2024-02-08T00:58:18.903Z,3.30
2024-02-08T01:00:46.129Z,2.83
2024-02-08T01:03:14.938Z,3.25
2024-02-08T01:05:43.451Z,3.08
2024-02-08T01:08:10.293Z,2.72
2024-02-08T01:10:37.195Z,2.80
2024-02-08T01:13:05.887Z,2.60
2024-02-08T01:15:32.878Z,2.40
2024-02-08T01:17:59.986Z,2.60
2024-02-08T01:20:29.465Z,2.90
2024-02-08T01:22:56.861Z,2.60
2024-02-08T01:25:23.894Z,2.58
2024-02-08T01:27:50.854Z,2.58
2024-02-08T01:30:18.356Z,2.17
2024-02-08T01:32:45.217Z,2.42
2024-02-08T01:35:12.489Z,2.90
2024-02-08T01:37:40.209Z,2.10
2024-02-08T01:40:17.843Z,2.08
2024-02-08T01:42:45.249Z,2.00
2024-02-08T01:45:24.213Z,2.20
2024-02-08T01:47:51.173Z,2.22
2024-02-08T01:50:19.683Z,2.20
2024-02-08T01:52:52.078Z,2.42
2024-02-08T01:55:19.820Z,1.80
2024-02-08T01:57:46.820Z,2.00
2024-02-08T02:00:14.331Z,2.00
2024-02-08T02:02:44.067Z,2.00
2024-02-08T02:05:18.654Z,2.58
2024-02-08T02:07:50.080Z,2.15
2024-02-08T02:10:18.448Z,2.10
2024-02-08T02:12:49.749Z,2.00
2024-02-08T02:15:18.204Z,2.03
2024-02-08T02:17:46.116Z,1.73
2024-02-08T02:20:14.358Z,1.70
2024-02-08T02:22:44.343Z,1.90
